sensor_id;sensor_type;location;lat;lon;timestamp;P1;durP1;ratioP1;P2;durP2;ratioP2
65717;SDS011;52445;52.466;-1.016;2022-08-03T00:01:20;1.52;;;1.42;;
65717;SDS011;52445;52.466;-1.016;2022-08-03T00:03:47;2.42;;;1.95;;
65717;SDS011;52445;52.466;-1.016;2022-08-03T00:06:13;3.20;;;1.20;;
65717;SDS011;52445;52.466;-1.016;2022-08-03T00:08:40;2.00;;;1.20;;
65717;SDS011;52445;52.466;-1.016;2022-08-03T00:11:06;2.22;;;1.30;;
65717;SDS011;52445;52.466;-1.016;2022-08-03T00:13:33;2.63;;;1.65;;
65717;SDS011;52445;52.466;-1.016;2022-08-03T00:16:00;2.58;;;2.08;;
65717;SDS011;52445;52.466;-1.016;2022-08-03T00:18:27;2.22;;;1.30;;
65717;SDS011;52445;52.466;-1.016;2022-08-03T00:20:55;1.35;;;1.25;;
65717;SDS011;52445;52.466;-1.016;2022-08-03T00:23:24;2.78;;;1.83;;
65717;SDS011;52445;52.466;-1.016;2022-08-03T00:26:12;1.77;;;1.58;;
65717;SDS011;52445;52.466;-1.016;2022-08-03T00:28:40;2.97;;;1.45;;
65717;SDS011;52445;52.466;-1.016;2022-08-03T00:31:09;1.60;;;1.45;;
65717;SDS011;52445;52.466;-1.016;2022-08-03T00:33:39;2.30;;;1.52;;
65717;SDS011;52445;52.466;-1.016;2022-08-03T00:36:25;3.20;;;1.58;;
65717;SDS011;52445;52.466;-1.016;2022-08-03T00:38:54;2.53;;;1.50;;
65717;SDS011;52445;52.466;-1.016;2022-08-03T00:41:21;1.45;;;1.35;;
65717;SDS011;52445;52.466;-1.016;2022-08-03T00:43:48;0.80;;;0.52;;
65717;SDS011;52445;52.466;-1.016;2022-08-03T00:46:15;1.75;;;1.40;;
65717;SDS011;52445;52.466;-1.016;2022-08-03T00:48:50;3.03;;;1.42;;
65717;SDS011;52445;52.466;-1.016;2022-08-03T00:51:18;2.55;;;1.33;;
65717;SDS011;52445;52.466;-1.016;2022-08-03T00:53:46;1.85;;;1.60;;
65717;SDS011;52445;52.466;-1.016;2022-08-03T00:56:14;1.35;;;1.25;;
65717;SDS011;52445;52.466;-1.016;2022-08-03T00:58:42;2.03;;;0.98;;
65717;SDS011;52445;52.466;-1.016;2022-08-03T01:01:10;3.83;;;1.73;;
65717;SDS011;52445;52.466;-1.016;2022-08-03T01:03:38;1.60;;;1.13;;
65717;SDS011;52445;52.466;-1.016;2022-08-03T01:08:59;1.00;;;0.50;;
65717;SDS011;52445;52.466;-1.016;2022-08-03T01:27:32;1.83;;;0.60;;
65717;SDS011;52445;52.466;-1.016;2022-08-03T01:30:12;2.20;;;0.43;;
65717;SDS011;52445;52.466;-1.016;2022-08-03T01:32:41;1.80;;;0.80;;
65717;SDS011;52445;52.466;-1.016;2022-08-03T01:38:24;3.53;;;0.73;;
65717;SDS011;52445;52.466;-1.016;2022-08-03T01:40:56;3.83;;;1.23;;
65717;SDS011;52445;52.466;-1.016;2022-08-03T01:43:24;1.80;;;1.15;;
65717;SDS011;52445;52.466;-1.016;2022-08-03T01:46:13;3.53;;;0.90;;
65717;SDS011;52445;52.466;-1.016;2022-08-03T01:48:42;2.83;;;1.10;;
65717;SDS011;52445;52.466;-1.016;2022-08-03T01:51:11;3.15;;;1.10;;
65717;SDS011;52445;52.466;-1.016;2022-08-03T01:53:40;3.47;;;1.67;;
65717;SDS011;52445;52.466;-1.016;2022-08-03T01:56:08;2.88;;;0.90;;
65717;SDS011;52445;52.466;-1.016;2022-08-03T01:58:36;4.07;;;0.85;;
65717;SDS011;52445;52.466;-1.016;2022-08-03T02:01:03;3.50;;;1.17;;
65717;SDS011;52445;52.466;-1.016;2022-08-03T02:03:33;3.35;;;1.52;;
65717;SDS011;52445;52.466;-1.016;2022-08-03T02:06:23;5.07;;;0.95;;
65717;SDS011;52445;52.466;-1.016;2022-08-03T02:09:12;3.80;;;1.02;;
65717;SDS011;52445;52.466;-1.016;2022-08-03T02:11:40;9.30;;;1.38;;
65717;SDS011;52445;52.466;-1.016;2022-08-03T02:14:08;4.05;;;1.35;;
65717;SDS011;52445;52.466;-1.016;2022-08-03T02:16:35;5.38;;;1.00;;
65717;SDS011;52445;52.466;-1.016;2022-08-03T02:19:04;3.92;;;1.13;;
65717;SDS011;52445;52.466;-1.016;2022-08-03T02:21:34;2.83;;;1.08;;
65717;SDS011;52445;52.466;-1.016;2022-08-03T02:24:22;5.07;;;1.00;;
65717;SDS011;52445;52.466;-1.016;2022-08-03T02:26:50;3.05;;;0.80;;
65717;SDS011;52445;52.466;-1.016;2022-08-03T02:29:22;4.72;;;0.68;;
65717;SDS011;52445;52.466;-1.016;2022-08-03T02:32:06;4.25;;;1.10;;
65717;SDS011;52445;52.466;-1.016;2022-08-03T02:34:37;2.22;;;0.75;;
65717;SDS011;52445;52.466;-1.016;2022-08-03T02:37:06;2.30;;;1.00;;
65717;SDS011;52445;52.466;-1.016;2022-08-03T02:42:02;1.92;;;0.55;;
65717;SDS011;52445;52.466;-1.016;2022-08-03T02:44:33;1.95;;;0.60;;
65717;SDS011;52445;52.466;-1.016;2022-08-03T02:47:02;0.52;;;0.25;;
65717;SDS011;52445;52.466;-1.016;2022-08-03T02:49:32;2.22;;;0.52;;
65717;SDS011;52445;52.466;-1.016;2022-08-03T02:52:16;1.17;;;1.08;;
65717;SDS011;52445;52.466;-1.016;2022-08-03T02:54:45;0.88;;;0.52;;
65717;SDS011;52445;52.466;-1.016;2022-08-03T02:57:14;1.58;;;0.47;;
65717;SDS011;52445;52.466;-1.016;2022-08-03T03:02:11;0.80;;;0.40;;
65717;SDS011;52445;52.466;-1.016;2022-08-03T03:04:41;1.15;;;0.82;;
65717;SDS011;52445;52.466;-1.016;2022-08-03T03:07:29;3.38;;;0.47;;
65717;SDS011;52445;52.466;-1.016;2022-08-03T03:10:17;1.75;;;0.50;;
65717;SDS011;52445;52.466;-1.016;2022-08-03T03:12:46;3.08;;;0.90;;
65717;SDS011;52445;52.466;-1.016;2022-08-03T03:15:15;3.25;;;0.43;;
65717;SDS011;52445;52.466;-1.016;2022-08-03T03:17:42;1.90;;;0.68;;
65717;SDS011;52445;52.466;-1.016;2022-08-03T03:20:10;2.75;;;0.77;;
65717;SDS011;52445;52.466;-1.016;2022-08-03T03:22:37;2.10;;;0.73;;
65717;SDS011;52445;52.466;-1.016;2022-08-03T03:25:10;1.67;;;0.73;;
65717;SDS011;52445;52.466;-1.016;2022-08-03T03:27:37;2.67;;;1.02;;
65717;SDS011;52445;52.466;-1.016;2022-08-03T03:30:05;3.45;;;0.40;;
65717;SDS011;52445;52.466;-1.016;2022-08-03T03:32:31;2.25;;;0.70;;
65717;SDS011;52445;52.466;-1.016;2022-08-03T03:34:58;2.83;;;0.50;;
65717;SDS011;52445;52.466;-1.016;2022-08-03T03:37:26;1.30;;;0.40;;
65717;SDS011;52445;52.466;-1.016;2022-08-03T03:39:53;1.38;;;0.52;;
65717;SDS011;52445;52.466;-1.016;2022-08-03T03:42:20;2.88;;;0.40;;
65717;SDS011;52445;52.466;-1.016;2022-08-03T03:44:47;1.27;;;0.30;;
65717;SDS011;52445;52.466;-1.016;2022-08-03T03:47:14;1.25;;;0.50;;
65717;SDS011;52445;52.466;-1.016;2022-08-03T03:49:42;0.80;;;0.73;;
65717;SDS011;52445;52.466;-1.016;2022-08-03T03:52:09;0.73;;;0.73;;
65717;SDS011;52445;52.466;-1.016;2022-08-03T03:54:40;1.13;;;0.40;;
65717;SDS011;52445;52.466;-1.016;2022-08-03T03:57:07;0.95;;;0.32;;
65717;SDS011;52445;52.466;-1.016;2022-08-03T03:59:39;1.90;;;0.80;;
65717;SDS011;52445;52.466;-1.016;2022-08-03T04:02:07;2.03;;;0.60;;
65717;SDS011;52445;52.466;-1.016;2022-08-03T04:04:35;3.03;;;0.90;;
65717;SDS011;52445;52.466;-1.016;2022-08-03T04:07:23;1.70;;;0.60;;
65717;SDS011;52445;52.466;-1.016;2022-08-03T04:10:12;0.57;;;0.32;;
65717;SDS011;52445;52.466;-1.016;2022-08-03T04:13:03;1.77;;;0.38;;
65717;SDS011;52445;52.466;-1.016;2022-08-03T04:15:35;1.55;;;0.47;;
65717;SDS011;52445;52.466;-1.016;2022-08-03T04:18:05;1.90;;;0.40;;
65717;SDS011;52445;52.466;-1.016;2022-08-03T04:20:35;1.65;;;0.43;;
65717;SDS011;52445;52.466;-1.016;2022-08-03T04:23:04;0.95;;;0.30;;
65717;SDS011;52445;52.466;-1.016;2022-08-03T04:25:40;1.40;;;0.73;;
65717;SDS011;52445;52.466;-1.016;2022-08-03T04:28:09;1.33;;;0.30;;
65717;SDS011;52445;52.466;-1.016;2022-08-03T04:30:56;1.40;;;0.50;;
65717;SDS011;52445;52.466;-1.016;2022-08-03T04:33:25;1.20;;;0.40;;
65717;SDS011;52445;52.466;-1.016;2022-08-03T04:35:56;2.30;;;0.52;;
65717;SDS011;52445;52.466;-1.016;2022-08-03T04:38:29;0.93;;;0.50;;
65717;SDS011;52445;52.466;-1.016;2022-08-03T04:40:58;2.53;;;0.45;;
65717;SDS011;52445;52.466;-1.016;2022-08-03T04:43:26;0.90;;;0.30;;
65717;SDS011;52445;52.466;-1.016;2022-08-03T04:45:54;3.15;;;0.43;;
65717;SDS011;52445;52.466;-1.016;2022-08-03T04:48:22;1.13;;;0.70;;
65717;SDS011;52445;52.466;-1.016;2022-08-03T04:50:49;2.78;;;0.93;;
65717;SDS011;52445;52.466;-1.016;2022-08-03T04:53:16;2.90;;;0.45;;
65717;SDS011;52445;52.466;-1.016;2022-08-03T04:55:44;2.58;;;0.30;;
65717;SDS011;52445;52.466;-1.016;2022-08-03T04:58:11;1.52;;;0.60;;
65717;SDS011;52445;52.466;-1.016;2022-08-03T05:00:38;0.82;;;0.40;;
65717;SDS011;52445;52.466;-1.016;2022-08-03T05:03:05;1.30;;;0.73;;
65717;SDS011;52445;52.466;-1.016;2022-08-03T05:05:50;2.95;;;0.82;;
65717;SDS011;52445;52.466;-1.016;2022-08-03T05:08:18;2.95;;;0.55;;
65717;SDS011;52445;52.466;-1.016;2022-08-03T05:10:53;2.00;;;1.65;;
65717;SDS011;52445;52.466;-1.016;2022-08-03T05:13:19;1.02;;;0.63;;
65717;SDS011;52445;52.466;-1.016;2022-08-03T05:15:46;1.80;;;0.52;;
65717;SDS011;52445;52.466;-1.016;2022-08-03T05:18:13;1.70;;;0.80;;
65717;SDS011;52445;52.466;-1.016;2022-08-03T05:20:40;1.48;;;0.55;;
65717;SDS011;52445;52.466;-1.016;2022-08-03T05:23:06;1.33;;;0.70;;
65717;SDS011;52445;52.466;-1.016;2022-08-03T05:25:33;2.30;;;0.57;;
65717;SDS011;52445;52.466;-1.016;2022-08-03T05:27:59;2.75;;;0.60;;
65717;SDS011;52445;52.466;-1.016;2022-08-03T05:30:26;2.25;;;0.95;;
65717;SDS011;52445;52.466;-1.016;2022-08-03T05:33:00;1.83;;;0.60;;
65717;SDS011;52445;52.466;-1.016;2022-08-03T05:35:28;2.03;;;1.23;;
65717;SDS011;52445;52.466;-1.016;2022-08-03T05:38:15;3.92;;;0.60;;
65717;SDS011;52445;52.466;-1.016;2022-08-03T05:40:54;4.90;;;0.70;;
65717;SDS011;52445;52.466;-1.016;2022-08-03T05:43:23;2.50;;;0.45;;
65717;SDS011;52445;52.466;-1.016;2022-08-03T05:45:49;1.00;;;0.60;;
65717;SDS011;52445;52.466;-1.016;2022-08-03T05:48:36;1.55;;;0.40;;
65717;SDS011;52445;52.466;-1.016;2022-08-03T05:51:03;2.20;;;0.55;;
65717;SDS011;52445;52.466;-1.016;2022-08-03T05:53:32;3.47;;;0.80;;
65717;SDS011;52445;52.466;-1.016;2022-08-03T05:55:59;2.65;;;1.13;;
65717;SDS011;52445;52.466;-1.016;2022-08-03T05:58:42;4.28;;;0.73;;
65717;SDS011;52445;52.466;-1.016;2022-08-03T06:01:09;1.58;;;0.85;;
65717;SDS011;52445;52.466;-1.016;2022-08-03T06:03:36;19.60;;;1.00;;
65717;SDS011;52445;52.466;-1.016;2022-08-03T06:06:03;2.17;;;0.60;;
65717;SDS011;52445;52.466;-1.016;2022-08-03T06:08:30;2.25;;;0.50;;
65717;SDS011;52445;52.466;-1.016;2022-08-03T06:10:56;0.95;;;0.70;;
65717;SDS011;52445;52.466;-1.016;2022-08-03T06:13:23;0.98;;;0.70;;
65717;SDS011;52445;52.466;-1.016;2022-08-03T06:15:49;2.83;;;0.88;;
65717;SDS011;52445;52.466;-1.016;2022-08-03T06:18:16;0.93;;;0.50;;
65717;SDS011;52445;52.466;-1.016;2022-08-03T06:20:43;1.25;;;0.60;;
65717;SDS011;52445;52.466;-1.016;2022-08-03T06:23:12;2.38;;;0.75;;
65717;SDS011;52445;52.466;-1.016;2022-08-03T06:25:43;2.40;;;0.75;;
65717;SDS011;52445;52.466;-1.016;2022-08-03T06:28:10;2.83;;;0.95;;
65717;SDS011;52445;52.466;-1.016;2022-08-03T06:30:59;1.50;;;0.50;;
65717;SDS011;52445;52.466;-1.016;2022-08-03T06:33:26;1.17;;;0.50;;
65717;SDS011;52445;52.466;-1.016;2022-08-03T06:36:13;1.20;;;0.50;;
65717;SDS011;52445;52.466;-1.016;2022-08-03T06:38:40;1.58;;;0.45;;
65717;SDS011;52445;52.466;-1.016;2022-08-03T06:41:07;2.65;;;0.57;;
65717;SDS011;52445;52.466;-1.016;2022-08-03T06:43:33;1.10;;;0.55;;
65717;SDS011;52445;52.466;-1.016;2022-08-03T06:46:03;1.20;;;0.40;;
65717;SDS011;52445;52.466;-1.016;2022-08-03T06:48:31;2.28;;;1.45;;
65717;SDS011;52445;52.466;-1.016;2022-08-03T06:50:57;1.38;;;0.60;;
65717;SDS011;52445;52.466;-1.016;2022-08-03T06:53:24;4.68;;;0.65;;
65717;SDS011;52445;52.466;-1.016;2022-08-03T06:55:51;2.67;;;0.70;;
65717;SDS011;52445;52.466;-1.016;2022-08-03T06:58:20;2.65;;;0.52;;
65717;SDS011;52445;52.466;-1.016;2022-08-03T07:00:47;2.17;;;0.30;;
65717;SDS011;52445;52.466;-1.016;2022-08-03T07:03:14;0.98;;;0.52;;
65717;SDS011;52445;52.466;-1.016;2022-08-03T07:05:41;2.42;;;0.32;;
65717;SDS011;52445;52.466;-1.016;2022-08-03T07:08:09;0.80;;;0.40;;
65717;SDS011;52445;52.466;-1.016;2022-08-03T07:10:35;1.52;;;0.55;;
65717;SDS011;52445;52.466;-1.016;2022-08-03T07:13:02;2.00;;;0.47;;
65717;SDS011;52445;52.466;-1.016;2022-08-03T07:15:30;1.15;;;0.30;;
65717;SDS011;52445;52.466;-1.016;2022-08-03T07:18:17;1.95;;;0.38;;
65717;SDS011;52445;52.466;-1.016;2022-08-03T07:20:55;2.50;;;0.50;;
65717;SDS011;52445;52.466;-1.016;2022-08-03T07:23:22;2.33;;;0.47;;
65717;SDS011;52445;52.466;-1.016;2022-08-03T07:25:49;0.90;;;0.70;;
65717;SDS011;52445;52.466;-1.016;2022-08-03T07:28:16;1.85;;;0.82;;
65717;SDS011;52445;52.466;-1.016;2022-08-03T07:30:43;0.65;;;0.65;;
65717;SDS011;52445;52.466;-1.016;2022-08-03T07:33:09;1.65;;;0.38;;
65717;SDS011;52445;52.466;-1.016;2022-08-03T07:35:36;1.63;;;1.20;;
65717;SDS011;52445;52.466;-1.016;2022-08-03T07:38:03;1.55;;;0.57;;
65717;SDS011;52445;52.466;-1.016;2022-08-03T07:40:30;1.48;;;0.57;;
65717;SDS011;52445;52.466;-1.016;2022-08-03T07:42:58;1.55;;;0.55;;
65717;SDS011;52445;52.466;-1.016;2022-08-03T07:45:25;2.30;;;0.60;;
65717;SDS011;52445;52.466;-1.016;2022-08-03T07:47:52;0.40;;;0.32;;
65717;SDS011;52445;52.466;-1.016;2022-08-03T07:50:19;2.65;;;0.95;;
65717;SDS011;52445;52.466;-1.016;2022-08-03T07:52:47;1.60;;;0.50;;
65717;SDS011;52445;52.466;-1.016;2022-08-03T07:55:15;0.85;;;0.45;;
65717;SDS011;52445;52.466;-1.016;2022-08-03T07:57:43;3.33;;;0.30;;
65717;SDS011;52445;52.466;-1.016;2022-08-03T08:00:13;2.97;;;1.05;;
65717;SDS011;52445;52.466;-1.016;2022-08-03T08:02:42;0.63;;;0.50;;
65717;SDS011;52445;52.466;-1.016;2022-08-03T08:05:09;2.25;;;0.60;;
65717;SDS011;52445;52.466;-1.016;2022-08-03T08:07:36;0.90;;;0.50;;
65717;SDS011;52445;52.466;-1.016;2022-08-03T08:10:04;2.58;;;0.80;;
65717;SDS011;52445;52.466;-1.016;2022-08-03T08:12:33;1.60;;;0.50;;
65717;SDS011;52445;52.466;-1.016;2022-08-03T08:14:59;0.70;;;0.57;;
65717;SDS011;52445;52.466;-1.016;2022-08-03T08:17:26;3.42;;;0.43;;
65717;SDS011;52445;52.466;-1.016;2022-08-03T08:19:53;1.95;;;0.38;;
65717;SDS011;52445;52.466;-1.016;2022-08-03T08:22:20;2.25;;;0.60;;
65717;SDS011;52445;52.466;-1.016;2022-08-03T08:24:56;0.75;;;0.50;;
65717;SDS011;52445;52.466;-1.016;2022-08-03T08:27:23;1.48;;;0.52;;
65717;SDS011;52445;52.466;-1.016;2022-08-03T08:29:49;0.82;;;0.68;;
65717;SDS011;52445;52.466;-1.016;2022-08-03T08:32:21;1.52;;;0.63;;
65717;SDS011;52445;52.466;-1.016;2022-08-03T08:34:48;1.63;;;0.50;;
65717;SDS011;52445;52.466;-1.016;2022-08-03T08:37:15;3.83;;;0.50;;
65717;SDS011;52445;52.466;-1.016;2022-08-03T08:39:42;0.45;;;0.22;;
65717;SDS011;52445;52.466;-1.016;2022-08-03T08:42:08;1.90;;;0.50;;
65717;SDS011;52445;52.466;-1.016;2022-08-03T08:44:35;2.92;;;0.20;;
65717;SDS011;52445;52.466;-1.016;2022-08-03T08:47:02;1.70;;;0.30;;
65717;SDS011;52445;52.466;-1.016;2022-08-03T08:49:29;1.58;;;0.50;;
65717;SDS011;52445;52.466;-1.016;2022-08-03T08:51:58;2.03;;;0.32;;
65717;SDS011;52445;52.466;-1.016;2022-08-03T08:54:27;1.17;;;0.68;;
65717;SDS011;52445;52.466;-1.016;2022-08-03T08:56:57;2.42;;;0.40;;
65717;SDS011;52445;52.466;-1.016;2022-08-03T08:59:28;0.65;;;0.60;;
65717;SDS011;52445;52.466;-1.016;2022-08-03T09:02:14;1.27;;;0.65;;
65717;SDS011;52445;52.466;-1.016;2022-08-03T09:04:42;1.50;;;0.40;;
65717;SDS011;52445;52.466;-1.016;2022-08-03T09:07:10;1.05;;;0.50;;
65717;SDS011;52445;52.466;-1.016;2022-08-03T09:09:45;2.67;;;1.33;;
65717;SDS011;52445;52.466;-1.016;2022-08-03T09:12:37;0.60;;;0.38;;
65717;SDS011;52445;52.466;-1.016;2022-08-03T09:15:15;0.40;;;0.40;;
65717;SDS011;52445;52.466;-1.016;2022-08-03T09:17:57;1.20;;;0.43;;
65717;SDS011;52445;52.466;-1.016;2022-08-03T09:20:27;1.48;;;0.35;;
65717;SDS011;52445;52.466;-1.016;2022-08-03T09:25:33;1.05;;;1.05;;
65717;SDS011;52445;52.466;-1.016;2022-08-03T09:28:17;3.22;;;1.00;;
65717;SDS011;52445;52.466;-1.016;2022-08-03T09:31:04;2.22;;;1.13;;
65717;SDS011;52445;52.466;-1.016;2022-08-03T09:33:32;1.52;;;1.42;;
65717;SDS011;52445;52.466;-1.016;2022-08-03T09:36:32;2.13;;;1.08;;
65717;SDS011;52445;52.466;-1.016;2022-08-03T09:44:45;1.20;;;0.75;;
65717;SDS011;52445;52.466;-1.016;2022-08-03T09:47:14;0.85;;;0.20;;
65717;SDS011;52445;52.466;-1.016;2022-08-03T09:49:57;1.40;;;0.85;;
65717;SDS011;52445;52.466;-1.016;2022-08-03T09:52:29;2.03;;;0.47;;
65717;SDS011;52445;52.466;-1.016;2022-08-03T09:55:15;0.73;;;0.32;;
65717;SDS011;52445;52.466;-1.016;2022-08-03T09:58:03;0.60;;;0.43;;
65717;SDS011;52445;52.466;-1.016;2022-08-03T10:00:32;0.30;;;0.30;;
65717;SDS011;52445;52.466;-1.016;2022-08-03T10:03:20;1.15;;;0.63;;
65717;SDS011;52445;52.466;-1.016;2022-08-03T10:05:47;0.40;;;0.35;;
65717;SDS011;52445;52.466;-1.016;2022-08-03T10:08:15;0.73;;;0.55;;
65717;SDS011;52445;52.466;-1.016;2022-08-03T10:10:44;1.20;;;0.30;;
65717;SDS011;52445;52.466;-1.016;2022-08-03T10:13:12;0.60;;;0.60;;
65717;SDS011;52445;52.466;-1.016;2022-08-03T10:15:40;1.08;;;0.65;;
65717;SDS011;52445;52.466;-1.016;2022-08-03T10:18:27;1.80;;;0.63;;
65717;SDS011;52445;52.466;-1.016;2022-08-03T10:20:54;0.65;;;0.40;;
65717;SDS011;52445;52.466;-1.016;2022-08-03T10:23:28;1.35;;;0.85;;
65717;SDS011;52445;52.466;-1.016;2022-08-03T10:26:01;2.03;;;0.98;;
65717;SDS011;52445;52.466;-1.016;2022-08-03T10:28:33;0.57;;;0.15;;
65717;SDS011;52445;52.466;-1.016;2022-08-03T10:31:06;0.50;;;0.40;;
65717;SDS011;52445;52.466;-1.016;2022-08-03T10:33:36;0.55;;;0.43;;
65717;SDS011;52445;52.466;-1.016;2022-08-03T10:36:17;1.10;;;0.52;;
65717;SDS011;52445;52.466;-1.016;2022-08-03T10:38:50;3.70;;;0.30;;
65717;SDS011;52445;52.466;-1.016;2022-08-03T10:41:19;1.52;;;0.47;;
65717;SDS011;52445;52.466;-1.016;2022-08-03T10:51:51;1.42;;;1.13;;
65717;SDS011;52445;52.466;-1.016;2022-08-03T10:57:39;0.63;;;0.50;;
65717;SDS011;52445;52.466;-1.016;2022-08-03T16:01:03;4.40;;;1.15;;
65717;SDS011;52445;52.466;-1.016;2022-08-03T16:03:31;2.72;;;1.15;;
65717;SDS011;52445;52.466;-1.016;2022-08-03T16:06:00;1.25;;;0.95;;
65717;SDS011;52445;52.466;-1.016;2022-08-03T16:08:28;3.03;;;1.02;;
65717;SDS011;52445;52.466;-1.016;2022-08-03T16:10:55;2.35;;;0.93;;
65717;SDS011;52445;52.466;-1.016;2022-08-03T16:13:24;2.50;;;1.58;;
65717;SDS011;52445;52.466;-1.016;2022-08-03T16:16:12;1.90;;;0.93;;
65717;SDS011;52445;52.466;-1.016;2022-08-03T16:18:39;3.28;;;0.95;;
65717;SDS011;52445;52.466;-1.016;2022-08-03T16:21:05;2.95;;;1.33;;
65717;SDS011;52445;52.466;-1.016;2022-08-03T16:23:35;2.40;;;1.20;;
65717;SDS011;52445;52.466;-1.016;2022-08-03T16:26:08;2.75;;;1.15;;
65717;SDS011;52445;52.466;-1.016;2022-08-03T16:28:35;2.28;;;1.10;;
65717;SDS011;52445;52.466;-1.016;2022-08-03T16:31:03;1.92;;;0.82;;
65717;SDS011;52445;52.466;-1.016;2022-08-03T16:33:31;1.40;;;0.93;;
65717;SDS011;52445;52.466;-1.016;2022-08-03T16:35:58;1.90;;;1.50;;
65717;SDS011;52445;52.466;-1.016;2022-08-03T16:38:24;2.50;;;1.15;;
65717;SDS011;52445;52.466;-1.016;2022-08-03T16:40:51;1.45;;;1.15;;
65717;SDS011;52445;52.466;-1.016;2022-08-03T16:43:18;5.38;;;0.73;;
65717;SDS011;52445;52.466;-1.016;2022-08-03T16:45:47;8.43;;;1.38;;
65717;SDS011;52445;52.466;-1.016;2022-08-03T16:48:14;2.50;;;1.02;;
65717;SDS011;52445;52.466;-1.016;2022-08-03T16:50:41;2.10;;;0.90;;
65717;SDS011;52445;52.466;-1.016;2022-08-03T16:53:08;1.90;;;1.00;;
65717;SDS011;52445;52.466;-1.016;2022-08-03T16:55:41;3.47;;;1.10;;
65717;SDS011;52445;52.466;-1.016;2022-08-03T16:58:20;2.38;;;1.00;;
65717;SDS011;52445;52.466;-1.016;2022-08-03T17:01:09;2.10;;;1.13;;
65717;SDS011;52445;52.466;-1.016;2022-08-03T17:03:50;2.53;;;1.23;;
65717;SDS011;52445;52.466;-1.016;2022-08-03T17:06:32;2.80;;;1.38;;
65717;SDS011;52445;52.466;-1.016;2022-08-03T17:09:05;2.90;;;1.08;;
65717;SDS011;52445;52.466;-1.016;2022-08-03T17:11:39;2.33;;;1.42;;
65717;SDS011;52445;52.466;-1.016;2022-08-03T17:14:12;3.10;;;1.45;;
65717;SDS011;52445;52.466;-1.016;2022-08-03T17:16:42;3.17;;;1.08;;
65717;SDS011;52445;52.466;-1.016;2022-08-03T17:19:19;1.75;;;1.10;;
65717;SDS011;52445;52.466;-1.016;2022-08-03T17:21:50;2.55;;;1.25;;
65717;SDS011;52445;52.466;-1.016;2022-08-03T17:24:33;3.13;;;2.40;;
65717;SDS011;52445;52.466;-1.016;2022-08-03T17:27:07;3.38;;;2.85;;
65717;SDS011;52445;52.466;-1.016;2022-08-03T17:30:00;3.28;;;1.33;;
65717;SDS011;52445;52.466;-1.016;2022-08-03T17:32:33;3.70;;;2.45;;
65717;SDS011;52445;52.466;-1.016;2022-08-03T17:35:08;4.75;;;2.13;;
65717;SDS011;52445;52.466;-1.016;2022-08-03T17:37:35;3.22;;;2.47;;
65717;SDS011;52445;52.466;-1.016;2022-08-03T17:40:22;3.95;;;2.95;;
65717;SDS011;52445;52.466;-1.016;2022-08-03T17:42:49;4.40;;;2.78;;
65717;SDS011;52445;52.466;-1.016;2022-08-03T17:45:16;2.70;;;1.92;;
65717;SDS011;52445;52.466;-1.016;2022-08-03T17:47:44;2.42;;;2.22;;
65717;SDS011;52445;52.466;-1.016;2022-08-03T17:50:23;3.55;;;2.53;;
65717;SDS011;52445;52.466;-1.016;2022-08-03T17:53:03;2.38;;;2.17;;
65717;SDS011;52445;52.466;-1.016;2022-08-03T17:55:40;2.90;;;2.47;;
65717;SDS011;52445;52.466;-1.016;2022-08-03T17:58:35;4.07;;;2.50;;
65717;SDS011;52445;52.466;-1.016;2022-08-03T18:01:10;5.25;;;2.72;;
65717;SDS011;52445;52.466;-1.016;2022-08-03T18:04:20;4.15;;;2.00;;
65717;SDS011;52445;52.466;-1.016;2022-08-03T18:06:56;4.50;;;3.90;;
65717;SDS011;52445;52.466;-1.016;2022-08-03T18:09:26;5.45;;;3.20;;
65717;SDS011;52445;52.466;-1.016;2022-08-03T18:12:17;4.57;;;2.70;;
65717;SDS011;52445;52.466;-1.016;2022-08-03T18:14:55;3.10;;;1.40;;
65717;SDS011;52445;52.466;-1.016;2022-08-03T18:17:33;2.65;;;2.45;;
65717;SDS011;52445;52.466;-1.016;2022-08-03T18:20:21;3.80;;;2.58;;
65717;SDS011;52445;52.466;-1.016;2022-08-03T18:23:00;5.43;;;2.40;;
65717;SDS011;52445;52.466;-1.016;2022-08-03T18:25:30;3.53;;;2.35;;
65717;SDS011;52445;52.466;-1.016;2022-08-03T18:28:14;2.72;;;2.17;;
65717;SDS011;52445;52.466;-1.016;2022-08-03T18:30:44;6.03;;;2.70;;
65717;SDS011;52445;52.466;-1.016;2022-08-03T18:33:20;4.18;;;2.03;;
65717;SDS011;52445;52.466;-1.016;2022-08-03T18:36:08;4.60;;;2.50;;
65717;SDS011;52445;52.466;-1.016;2022-08-03T18:38:43;2.88;;;2.53;;
65717;SDS011;52445;52.466;-1.016;2022-08-03T18:41:14;2.80;;;2.08;;
65717;SDS011;52445;52.466;-1.016;2022-08-03T18:43:58;3.75;;;2.35;;
65717;SDS011;52445;52.466;-1.016;2022-08-03T18:51:48;2.72;;;1.23;;
65717;SDS011;52445;52.466;-1.016;2022-08-03T18:54:25;2.67;;;1.20;;
65717;SDS011;52445;52.466;-1.016;2022-08-03T18:57:20;2.75;;;1.08;;
65717;SDS011;52445;52.466;-1.016;2022-08-03T19:00:02;3.83;;;1.08;;
65717;SDS011;52445;52.466;-1.016;2022-08-03T19:02:42;2.38;;;1.30;;
65717;SDS011;52445;52.466;-1.016;2022-08-03T19:05:21;5.13;;;1.88;;
65717;SDS011;52445;52.466;-1.016;2022-08-03T19:08:14;3.40;;;1.40;;
65717;SDS011;52445;52.466;-1.016;2022-08-03T19:10:44;3.80;;;1.63;;
65717;SDS011;52445;52.466;-1.016;2022-08-03T19:13:29;3.33;;;1.38;;
65717;SDS011;52445;52.466;-1.016;2022-08-03T19:16:02;2.97;;;1.38;;
65717;SDS011;52445;52.466;-1.016;2022-08-03T19:18:33;3.13;;;1.40;;
65717;SDS011;52445;52.466;-1.016;2022-08-03T19:21:02;4.47;;;1.80;;
65717;SDS011;52445;52.466;-1.016;2022-08-03T19:23:42;2.50;;;1.65;;
65717;SDS011;52445;52.466;-1.016;2022-08-03T19:26:10;3.20;;;1.10;;
65717;SDS011;52445;52.466;-1.016;2022-08-03T19:28:56;2.65;;;1.10;;
65717;SDS011;52445;52.466;-1.016;2022-08-03T19:31:24;3.67;;;1.75;;
65717;SDS011;52445;52.466;-1.016;2022-08-03T19:34:00;4.53;;;1.30;;
65717;SDS011;52445;52.466;-1.016;2022-08-03T19:36:28;3.45;;;1.23;;
65717;SDS011;52445;52.466;-1.016;2022-08-03T19:38:56;2.75;;;1.13;;
65717;SDS011;52445;52.466;-1.016;2022-08-03T19:41:24;4.90;;;1.15;;
65717;SDS011;52445;52.466;-1.016;2022-08-03T19:44:24;2.97;;;1.55;;
65717;SDS011;52445;52.466;-1.016;2022-08-03T19:47:11;6.50;;;1.65;;
65717;SDS011;52445;52.466;-1.016;2022-08-03T19:49:47;2.15;;;1.65;;
65717;SDS011;52445;52.466;-1.016;2022-08-03T19:52:37;3.20;;;1.40;;
65717;SDS011;52445;52.466;-1.016;2022-08-03T19:55:06;3.65;;;1.40;;
65717;SDS011;52445;52.466;-1.016;2022-08-03T19:57:38;2.55;;;1.42;;
65717;SDS011;52445;52.466;-1.016;2022-08-03T20:00:07;2.42;;;0.90;;
65717;SDS011;52445;52.466;-1.016;2022-08-03T20:02:39;2.75;;;1.50;;
65717;SDS011;52445;52.466;-1.016;2022-08-03T20:05:06;3.00;;;1.10;;
65717;SDS011;52445;52.466;-1.016;2022-08-03T20:07:41;4.55;;;0.85;;
65717;SDS011;52445;52.466;-1.016;2022-08-03T20:10:13;3.17;;;1.30;;
65717;SDS011;52445;52.466;-1.016;2022-08-03T20:12:42;3.80;;;2.33;;
65717;SDS011;52445;52.466;-1.016;2022-08-03T20:15:10;4.07;;;1.77;;
65717;SDS011;52445;52.466;-1.016;2022-08-03T20:17:37;2.72;;;1.23;;
65717;SDS011;52445;52.466;-1.016;2022-08-03T20:20:26;1.65;;;1.20;;
65717;SDS011;52445;52.466;-1.016;2022-08-03T20:23:04;4.43;;;2.53;;
65717;SDS011;52445;52.466;-1.016;2022-08-03T20:25:40;4.75;;;2.65;;
65717;SDS011;52445;52.466;-1.016;2022-08-03T20:28:23;6.03;;;2.42;;
65717;SDS011;52445;52.466;-1.016;2022-08-03T20:30:54;4.72;;;2.25;;
65717;SDS011;52445;52.466;-1.016;2022-08-03T20:33:21;2.25;;;2.00;;
65717;SDS011;52445;52.466;-1.016;2022-08-03T20:36:08;3.03;;;2.28;;
65717;SDS011;52445;52.466;-1.016;2022-08-03T20:38:36;3.08;;;2.08;;
65717;SDS011;52445;52.466;-1.016;2022-08-03T20:43:39;2.67;;;1.80;;
65717;SDS011;52445;52.466;-1.016;2022-08-03T20:46:06;3.97;;;1.70;;
65717;SDS011;52445;52.466;-1.016;2022-08-03T20:48:53;4.47;;;2.03;;
65717;SDS011;52445;52.466;-1.016;2022-08-03T20:51:24;3.40;;;2.38;;
65717;SDS011;52445;52.466;-1.016;2022-08-03T20:54:11;2.63;;;2.30;;
65717;SDS011;52445;52.466;-1.016;2022-08-03T20:56:57;9.95;;;2.70;;
65717;SDS011;52445;52.466;-1.016;2022-08-03T20:59:29;4.93;;;2.42;;